sensor_id;sensor_type;location;lat;lon;timestamp;pressure;altitude;pressure_sealevel;temperature;humidity
55077;BME280;40971;44.702;11.030;2023-02-19T00:02:36;102376.44;;;2.08;82.06
55077;BME280;40971;44.702;11.030;2023-02-19T00:12:36;102366.34;;;2.02;82.12
55077;BME280;40971;44.702;11.030;2023-02-19T00:22:37;102354.63;;;1.93;86.09
55077;BME280;40971;44.702;11.030;2023-02-19T00:32:37;102356.09;;;1.99;86.39
55077;BME280;40971;44.702;11.030;2023-02-19T00:42:37;102354.22;;;2.21;88.31
55077;BME280;40971;44.702;11.030;2023-02-19T00:52:38;102367.81;;;1.28;86.82
55077;BME280;40971;44.702;11.030;2023-02-19T01:02:38;102377.97;;;1.33;87.73
55077;BME280;40971;44.702;11.030;2023-02-19T01:12:39;102372.19;;;1.48;88.06
55077;BME280;40971;44.702;11.030;2023-02-19T01:22:39;102364.72;;;0.98;84.74
55077;BME280;40971;44.702;11.030;2023-02-19T01:32:40;102361.16;;;1.01;88.68
55077;BME280;40971;44.702;11.030;2023-02-19T01:42:43;102340.44;;;1.01;88.82
55077;BME280;40971;44.702;11.030;2023-02-19T01:52:47;102344.06;;;0.97;89.63
55077;BME280;40971;44.702;11.030;2023-02-19T02:02:50;102328.50;;;0.77;88.66
55077;BME280;40971;44.702;11.030;2023-02-19T02:12:55;102282.09;;;0.29;90.19
55077;BME280;40971;44.702;11.030;2023-02-19T02:23:54;102310.81;;;0.44;90.79
55077;BME280;40971;44.702;11.030;2023-02-19T02:43:28;102303.31;;;1.02;92.11
55077;BME280;40971;44.702;11.030;2023-02-19T02:53:34;102295.28;;;1.08;88.72
55077;BME280;40971;44.702;11.030;2023-02-19T03:04:02;102281.94;;;0.55;88.61
55077;BME280;40971;44.702;11.030;2023-02-19T03:14:21;102275.72;;;0.59;90.04
55077;BME280;40971;44.702;11.030;2023-02-19T03:24:53;102285.94;;;0.84;89.05
55077;BME280;40971;44.702;11.030;2023-02-19T03:35:19;102283.56;;;0.57;87.91
55077;BME280;40971;44.702;11.030;2023-02-19T03:45:57;102275.44;;;0.87;88.18
55077;BME280;40971;44.702;11.030;2023-02-19T03:56:10;102277.06;;;0.69;90.24
55077;BME280;40971;44.702;11.030;2023-02-19T04:06:17;102277.66;;;0.32;90.67
55077;BME280;40971;44.702;11.030;2023-02-19T04:16:22;102275.13;;;0.52;90.17
55077;BME280;40971;44.702;11.030;2023-02-19T04:26:24;102269.38;;;1.08;90.51
55077;BME280;40971;44.702;11.030;2023-02-19T04:36:24;102254.09;;;1.22;88.83
55077;BME280;40971;44.702;11.030;2023-02-19T04:46:25;102263.03;;;1.15;88.18
55077;BME280;40971;44.702;11.030;2023-02-19T04:56:25;102268.38;;;0.48;88.55
55077;BME280;40971;44.702;11.030;2023-02-19T05:06:26;102255.53;;;0.89;89.57
55077;BME280;40971;44.702;11.030;2023-02-19T05:16:26;102252.03;;;0.70;88.13
55077;BME280;40971;44.702;11.030;2023-02-19T05:26:27;102251.75;;;0.76;86.10
55077;BME280;40971;44.702;11.030;2023-02-19T05:36:28;102251.47;;;0.62;88.13
55077;BME280;40971;44.702;11.030;2023-02-19T05:46:29;102258.09;;;0.69;87.02
55077;BME280;40971;44.702;11.030;2023-02-19T05:56:40;102258.97;;;0.89;88.52
55077;BME280;40971;44.702;11.030;2023-02-19T06:06:41;102246.97;;;0.67;87.39
55077;BME280;40971;44.702;11.030;2023-02-19T06:16:41;102248.66;;;0.24;88.56
55077;BME280;40971;44.702;11.030;2023-02-19T06:26:42;102242.94;;;0.59;88.45
55077;BME280;40971;44.702;11.030;2023-02-19T06:36:42;102243.56;;;0.65;87.98
55077;BME280;40971;44.702;11.030;2023-02-19T06:46:43;102235.97;;;1.22;87.34
55077;BME280;40971;44.702;11.030;2023-02-19T06:56:44;102243.88;;;1.58;86.15
55077;BME280;40971;44.702;11.030;2023-02-19T07:06:44;102246.13;;;2.21;85.14
55077;BME280;40971;44.702;11.030;2023-02-19T07:16:45;102244.28;;;3.11;83.99
55077;BME280;40971;44.702;11.030;2023-02-19T07:26:46;102240.63;;;3.96;83.46
55077;BME280;40971;44.702;11.030;2023-02-19T07:36:47;102227.38;;;4.91;79.91
55077;BME280;40971;44.702;11.030;2023-02-19T07:46:47;102213.34;;;5.64;79.34
55077;BME280;40971;44.702;11.030;2023-02-19T07:56:48;102238.31;;;6.77;77.45
55077;BME280;40971;44.702;11.030;2023-02-19T08:06:48;102247.56;;;7.58;74.73
55077;BME280;40971;44.702;11.030;2023-02-19T08:16:50;102248.19;;;9.16;71.07
55077;BME280;40971;44.702;11.030;2023-02-19T08:26:50;102221.56;;;9.99;67.25
55077;BME280;40971;44.702;11.030;2023-02-19T08:36:51;102233.59;;;11.07;64.95
55077;BME280;40971;44.702;11.030;2023-02-19T08:46:51;102231.44;;;12.22;62.27
55077;BME280;40971;44.702;11.030;2023-02-19T08:56:52;102223.88;;;13.23;58.76
55077;BME280;40971;44.702;11.030;2023-02-19T09:06:53;102230.00;;;14.15;57.13
55077;BME280;40971;44.702;11.030;2023-02-19T09:16:53;102221.50;;;13.94;59.50
55077;BME280;40971;44.702;11.030;2023-02-19T09:26:54;102232.84;;;14.04;58.02
55077;BME280;40971;44.702;11.030;2023-02-19T09:36:55;102214.47;;;13.11;60.95
55077;BME280;40971;44.702;11.030;2023-02-19T09:46:55;102217.56;;;13.43;61.75
55077;BME280;40971;44.702;11.030;2023-02-19T09:57:00;102212.22;;;14.08;59.37
55077;BME280;40971;44.702;11.030;2023-02-19T10:07:01;102203.56;;;14.15;59.03
55077;BME280;40971;44.702;11.030;2023-02-19T10:17:04;102207.16;;;14.14;57.85
55077;BME280;40971;44.702;11.030;2023-02-19T10:27:12;102202.09;;;14.03;58.57
55077;BME280;40971;44.702;11.030;2023-02-19T10:37:16;102184.94;;;14.25;57.84
55077;BME280;40971;44.702;11.030;2023-02-19T10:47:21;102173.88;;;14.39;57.70
55077;BME280;40971;44.702;11.030;2023-02-19T10:57:25;102184.31;;;14.84;56.76
55077;BME280;40971;44.702;11.030;2023-02-19T11:07:29;102158.84;;;15.16;56.07
55077;BME280;40971;44.702;11.030;2023-02-19T11:17:30;102138.34;;;15.52;54.61
55077;BME280;40971;44.702;11.030;2023-02-19T11:27:31;102132.50;;;15.07;54.95
55077;BME280;40971;44.702;11.030;2023-02-19T11:37:31;102109.22;;;15.19;54.85
55077;BME280;40971;44.702;11.030;2023-02-19T11:47:55;102112.19;;;15.15;55.73
55077;BME280;40971;44.702;11.030;2023-02-19T12:51:11;102066.13;;;15.16;55.85
55077;BME280;40971;44.702;11.030;2023-02-19T13:01:18;102053.84;;;15.07;55.97
55077;BME280;40971;44.702;11.030;2023-02-19T13:11:30;102044.34;;;15.39;55.31
55077;BME280;40971;44.702;11.030;2023-02-19T13:21:35;102021.81;;;15.27;54.72
55077;BME280;40971;44.702;11.030;2023-02-19T13:42:29;102000.19;;;15.55;54.55
55077;BME280;40971;44.702;11.030;2023-02-19T13:52:38;102002.03;;;15.79;53.43
55077;BME280;40971;44.702;11.030;2023-02-19T14:02:39;101995.88;;;15.95;53.04
55077;BME280;40971;44.702;11.030;2023-02-19T14:12:39;101986.28;;;16.02;52.57
55077;BME280;40971;44.702;11.030;2023-02-19T14:32:46;101979.84;;;16.98;51.18
55077;BME280;40971;44.702;11.030;2023-02-19T14:42:50;101968.56;;;17.27;49.31
55077;BME280;40971;44.702;11.030;2023-02-19T14:52:55;101960.16;;;17.15;48.81
55077;BME280;40971;44.702;11.030;2023-02-19T15:02:57;101952.91;;;16.78;50.14
55077;BME280;40971;44.702;11.030;2023-02-19T15:13:06;101954.88;;;17.38;49.18
55077;BME280;40971;44.702;11.030;2023-02-19T15:23:16;101961.66;;;16.87;49.61
55077;BME280;40971;44.702;11.030;2023-02-19T15:33:19;101958.72;;;16.11;52.59
55077;BME280;40971;44.702;11.030;2023-02-19T15:53:31;101949.78;;;15.39;54.30
55077;BME280;40971;44.702;11.030;2023-02-19T16:03:35;101973.75;;;14.64;56.25
55077;BME280;40971;44.702;11.030;2023-02-19T16:13:36;101961.38;;;13.87;58.93
55077;BME280;40971;44.702;11.030;2023-02-19T16:23:41;101954.59;;;13.67;59.92
55077;BME280;40971;44.702;11.030;2023-02-19T16:33:44;101969.31;;;13.52;60.26
55077;BME280;40971;44.702;11.030;2023-02-19T16:43:46;101988.84;;;12.69;63.12
55077;BME280;40971;44.702;11.030;2023-02-19T16:53:46;101993.84;;;12.25;63.70
55077;BME280;40971;44.702;11.030;2023-02-19T17:03:47;102017.91;;;11.84;65.23
55077;BME280;40971;44.702;11.030;2023-02-19T17:13:47;102032.00;;;11.45;65.87
55077;BME280;40971;44.702;11.030;2023-02-19T17:23:48;102038.22;;;10.94;66.90
55077;BME280;40971;44.702;11.030;2023-02-19T17:33:49;102056.28;;;10.48;68.25
55077;BME280;40971;44.702;11.030;2023-02-19T17:43:50;102079.97;;;9.95;68.55
55077;BME280;40971;44.702;11.030;2023-02-19T17:53:51;102082.19;;;9.79;69.28
55077;BME280;40971;44.702;11.030;2023-02-19T18:03:51;102116.09;;;9.71;72.13
55077;BME280;40971;44.702;11.030;2023-02-19T18:13:52;102128.06;;;8.75;70.11
55077;BME280;40971;44.702;11.030;2023-02-19T18:23:52;102139.91;;;8.46;76.03
55077;BME280;40971;44.702;11.030;2023-02-19T18:33:53;102122.56;;;8.67;76.68
55077;BME280;40971;44.702;11.030;2023-02-19T18:43:53;102133.56;;;8.95;77.43
55077;BME280;40971;44.702;11.030;2023-02-19T18:53:53;102160.19;;;9.23;77.14
55077;BME280;40971;44.702;11.030;2023-02-19T19:03:54;102137.28;;;9.14;76.25
55077;BME280;40971;44.702;11.030;2023-02-19T19:13:54;102163.13;;;8.97;77.32
55077;BME280;40971;44.702;11.030;2023-02-19T19:23:55;102179.59;;;8.88;77.30
55077;BME280;40971;44.702;11.030;2023-02-19T19:33:55;102179.94;;;8.48;77.35
55077;BME280;40971;44.702;11.030;2023-02-19T19:43:56;102199.56;;;8.43;78.83
55077;BME280;40971;44.702;11.030;2023-02-19T19:53:56;102223.91;;;8.32;77.78
55077;BME280;40971;44.702;11.030;2023-02-19T20:03:57;102219.25;;;7.88;77.75
55077;BME280;40971;44.702;11.030;2023-02-19T20:13:58;102229.38;;;7.56;80.30
55077;BME280;40971;44.702;11.030;2023-02-19T20:23:58;102269.16;;;7.36;79.92
55077;BME280;40971;44.702;11.030;2023-02-19T20:33:59;102272.94;;;6.54;80.24
55077;BME280;40971;44.702;11.030;2023-02-19T20:43:59;102291.72;;;6.05;84.20
55077;BME280;40971;44.702;11.030;2023-02-19T20:54:00;102313.00;;;5.85;85.15
55077;BME280;40971;44.702;11.030;2023-02-19T21:04:00;102289.84;;;5.79;86.03
55077;BME280;40971;44.702;11.030;2023-02-19T21:14:01;102290.41;;;5.70;85.68
55077;BME280;40971;44.702;11.030;2023-02-19T21:24:02;102328.66;;;5.99;85.95
55077;BME280;40971;44.702;11.030;2023-02-19T21:34:04;102334.72;;;6.00;86.61
55077;BME280;40971;44.702;11.030;2023-02-19T21:44:05;102331.06;;;6.16;86.00
55077;BME280;40971;44.702;11.030;2023-02-19T21:54:06;102336.00;;;6.21;86.00
55077;BME280;40971;44.702;11.030;2023-02-19T22:04:12;102338.59;;;6.21;86.50
55077;BME280;40971;44.702;11.030;2023-02-19T22:14:13;102327.06;;;6.11;87.40
55077;BME280;40971;44.702;11.030;2023-02-19T22:24:18;102328.09;;;6.08;87.27
55077;BME280;40971;44.702;11.030;2023-02-19T22:34:20;102334.97;;;6.09;87.55
55077;BME280;40971;44.702;11.030;2023-02-19T22:44:21;102366.22;;;6.25;86.97
55077;BME280;40971;44.702;11.030;2023-02-19T22:54:21;102362.75;;;6.38;85.75
55077;BME280;40971;44.702;11.030;2023-02-19T23:04:25;102363.31;;;6.29;86.46
55077;BME280;40971;44.702;11.030;2023-02-19T23:14:26;102337.88;;;6.19;87.24
55077;BME280;40971;44.702;11.030;2023-02-19T23:24:26;102350.25;;;6.29;88.13
55077;BME280;40971;44.702;11.030;2023-02-19T23:34:27;102347.28;;;6.21;87.89
55077;BME280;40971;44.702;11.030;2023-02-19T23:44:27;102335.44;;;6.16;88.18
55077;BME280;40971;44.702;11.030;2023-02-19T23:54:28;102358.84;;;6.17;87.08
